createdAt,value
2023-04-19T00:02:26.336Z,11.74
2023-04-19T00:04:55.861Z,11.68
2023-04-19T00:07:23.627Z,11.72
2023-04-19T00:09:51.114Z,11.72
2023-04-19T00:12:18.928Z,11.75
2023-04-19T00:14:46.388Z,11.75
2023-04-19T00:17:13.978Z,11.62
2023-04-19T00:19:41.922Z,11.89
2023-04-19T00:22:09.535Z,11.63
2023-04-19T00:24:37.019Z,11.51
2023-04-19T00:27:04.569Z,11.59
2023-04-19T00:29:32.236Z,11.62
2023-04-19T00:31:59.767Z,11.60
2023-04-19T00:34:47.389Z,11.60
2023-04-19T00:37:14.962Z,11.61
2023-04-19T00:39:42.789Z,11.64
2023-04-19T00:42:10.429Z,11.71
2023-04-19T00:44:38.196Z,11.83
2023-04-19T00:47:06.159Z,11.77
2023-04-19T00:49:33.700Z,11.64
2023-04-19T00:52:01.467Z,11.57
2023-04-19T00:54:29.159Z,11.57
2023-04-19T00:56:57.223Z,11.64
2023-04-19T00:59:25.736Z,11.62
2023-04-19T01:01:53.861Z,11.59
2023-04-19T01:04:23.153Z,11.68
2023-04-19T01:06:51.470Z,11.78
2023-04-19T01:09:19.054Z,11.81
2023-04-19T01:11:46.641Z,11.89
2023-04-19T01:14:16.122Z,11.92
2023-04-19T01:16:48.066Z,12.04
2023-04-19T01:19:16.814Z,11.99
2023-04-19T01:21:44.559Z,11.89
2023-04-19T01:24:12.201Z,11.90
2023-04-19T01:26:39.745Z,11.84
2023-04-19T01:29:07.192Z,11.87
2023-04-19T01:31:35.293Z,12.03
2023-04-19T01:34:04.683Z,11.89
2023-04-19T01:36:32.461Z,12.05
2023-04-19T01:39:00.328Z,12.02
2023-04-19T01:41:29.717Z,11.88
2023-04-19T01:43:57.290Z,11.99
2023-04-19T01:46:25.931Z,11.86
2023-04-19T01:48:53.526Z,11.82
2023-04-19T01:51:22.161Z,11.86
2023-04-19T01:53:54.548Z,11.83
2023-04-19T01:56:23.879Z,11.79
2023-04-19T01:58:51.350Z,11.78
2023-04-19T02:01:19.104Z,11.81
2023-04-19T02:03:47.233Z,11.88
2023-04-19T02:06:15.575Z,11.84
2023-04-19T02:08:43.824Z,11.92
2023-04-19T02:11:16.846Z,11.95
2023-04-19T02:13:46.157Z,12.08
2023-04-19T02:16:13.733Z,12.02
2023-04-19T02:18:41.673Z,12.02
2023-04-19T02:21:11.499Z,11.94
2023-04-19T02:23:42.161Z,11.92
2023-04-19T02:26:11.425Z,11.98
2023-04-19T02:28:39.348Z,11.96
2023-04-19T02:31:08.530Z,11.94
2023-04-19T02:33:36.598Z,12.02
2023-04-19T02:36:04.794Z,12.01
2023-04-19T02:38:34.295Z,12.00
2023-04-19T02:41:04.378Z,12.08
2023-04-19T02:43:31.932Z,12.07
2023-04-19T02:45:59.523Z,12.07
2023-04-19T02:48:27.416Z,12.01
2023-04-19T02:50:57.084Z,12.08
2023-04-19T02:53:28.570Z,11.97
2023-04-19T02:55:57.980Z,12.04
2023-04-19T02:58:26.510Z,12.11
2023-04-19T03:01:02.847Z,11.95
2023-04-19T03:03:30.484Z,11.90
2023-04-19T03:05:59.150Z,11.94
2023-04-19T03:08:29.704Z,11.92
2023-04-19T03:10:58.192Z,11.92
2023-04-19T03:13:25.867Z,12.06
2023-04-19T03:15:54.716Z,12.07
2023-04-19T03:18:23.783Z,12.02
2023-04-19T03:20:53.566Z,12.03
2023-04-19T03:23:21.831Z,11.99
2023-04-19T03:25:51.653Z,11.93
2023-04-19T03:28:30.244Z,11.95
2023-04-19T03:31:16.562Z,11.99
2023-04-19T03:33:45.223Z,12.03
2023-04-19T03:36:15.111Z,12.03
2023-04-19T03:38:44.553Z,12.01
2023-04-19T03:41:26.161Z,12.04
2023-04-19T03:44:04.923Z,12.04
2023-04-19T03:46:32.547Z,12.14
2023-04-19T03:49:00.582Z,12.26
2023-04-19T03:51:29.244Z,12.35
2023-04-19T03:53:57.978Z,12.48
2023-04-19T03:56:27.376Z,12.44
2023-04-19T03:58:56.287Z,12.48
2023-04-19T04:01:26.918Z,12.40
2023-04-19T04:03:57.886Z,12.32
2023-04-19T04:06:26.869Z,12.23
2023-04-19T04:08:56.115Z,12.24
2023-04-19T04:11:26.028Z,12.25
2023-04-19T04:13:57.856Z,12.37
2023-04-19T04:16:35.308Z,12.51
2023-04-19T04:19:44.988Z,12.48
2023-04-19T04:22:13.613Z,12.31
2023-04-19T04:24:44.483Z,12.24
2023-04-19T04:27:37.523Z,12.18
2023-04-19T04:30:10.219Z,12.14
2023-04-19T04:32:38.931Z,12.27
2023-04-19T04:35:11.389Z,12.25
2023-04-19T04:37:54.032Z,12.38
2023-04-19T04:40:22.035Z,12.28
2023-04-19T04:42:49.652Z,12.45
2023-04-19T04:45:18.543Z,12.66
2023-04-19T04:47:46.641Z,12.86
2023-04-19T04:50:16.744Z,12.71
2023-04-19T04:52:45.674Z,12.64
2023-04-19T04:55:28.670Z,12.45
2023-04-19T04:57:59.836Z,12.47
2023-04-19T05:00:41.944Z,12.69
2023-04-19T05:03:12.362Z,12.63
2023-04-19T05:05:47.608Z,12.49
2023-04-19T05:08:15.206Z,12.44
2023-04-19T05:10:44.052Z,12.49
2023-04-19T05:13:31.466Z,12.52
2023-04-19T05:16:01.471Z,12.57
2023-04-19T05:18:29.259Z,12.70
2023-04-19T05:20:58.245Z,12.75
2023-04-19T05:23:45.810Z,12.75
2023-04-19T05:26:15.685Z,12.71
2023-04-19T05:28:47.391Z,12.66
2023-04-19T05:31:22.762Z,12.53
2023-04-19T05:34:06.446Z,12.59
2023-04-19T05:36:34.005Z,12.73
2023-04-19T05:39:01.683Z,12.96
2023-04-19T05:41:29.152Z,12.84
2023-04-19T05:43:56.893Z,12.77
2023-04-19T05:46:26.197Z,13.09
2023-04-19T05:48:54.103Z,13.09
2023-04-19T05:51:28.446Z,12.89
2023-04-19T05:54:19.613Z,13.14
2023-04-19T05:56:48.704Z,13.29
2023-04-19T05:59:16.280Z,13.25
2023-04-19T06:01:44.119Z,13.22
2023-04-19T06:04:13.209Z,13.21
2023-04-19T06:06:41.340Z,13.46
2023-04-19T06:09:08.916Z,13.49
2023-04-19T06:11:46.958Z,13.32
2023-04-19T06:14:18.103Z,13.51
2023-04-19T06:16:46.252Z,13.72
2023-04-19T06:19:13.796Z,13.50
2023-04-19T06:21:41.369Z,13.34
2023-04-19T06:24:09.048Z,13.43
2023-04-19T06:26:36.517Z,13.39
2023-04-19T06:29:05.610Z,13.45
2023-04-19T06:31:34.238Z,13.60
2023-04-19T06:34:01.997Z,13.70
2023-04-19T06:36:29.994Z,13.79
2023-04-19T06:38:57.797Z,13.82
2023-04-19T06:41:26.393Z,13.86
2023-04-19T06:43:55.353Z,13.87
2023-04-19T06:46:23.033Z,13.96
2023-04-19T06:48:51.005Z,14.04
2023-04-19T06:51:18.536Z,13.93
2023-04-19T06:53:47.530Z,13.84
2023-04-19T06:56:15.384Z,14.02
2023-04-19T06:58:42.842Z,13.85
2023-04-19T07:01:10.766Z,13.95
2023-04-19T07:03:38.446Z,14.14
2023-04-19T07:06:06.674Z,13.94
2023-04-19T07:08:48.743Z,14.19
2023-04-19T07:11:17.467Z,14.10
2023-04-19T07:13:44.968Z,14.14
2023-04-19T07:16:13.935Z,14.21
2023-04-19T07:18:41.489Z,14.35
2023-04-19T07:21:12.636Z,14.64
2023-04-19T07:23:40.236Z,14.77
2023-04-19T07:26:08.522Z,14.76
2023-04-19T07:28:36.080Z,14.54
2023-04-19T07:31:03.686Z,14.65
2023-04-19T07:33:31.407Z,14.82
2023-04-19T07:35:58.943Z,15.07
2023-04-19T07:38:26.496Z,15.14
2023-04-19T07:40:54.345Z,15.24
2023-04-19T07:43:22.169Z,15.18
2023-04-19T07:45:49.624Z,15.24
2023-04-19T07:48:17.140Z,15.22
2023-04-19T07:50:44.713Z,15.75
2023-04-19T07:53:12.270Z,15.91
2023-04-19T07:55:39.816Z,16.08
2023-04-19T07:58:07.362Z,15.83
2023-04-19T08:00:36.721Z,15.97
2023-04-19T08:03:04.937Z,16.33
2023-04-19T08:05:32.947Z,16.55
2023-04-19T08:08:00.511Z,16.51
2023-04-19T08:10:29.049Z,16.58
2023-04-19T08:13:04.363Z,16.75
2023-04-19T08:16:18.267Z,16.77
2023-04-19T08:18:27.025Z,16.99
2023-04-19T08:20:55.713Z,16.96
2023-04-19T08:23:29.475Z,17.43
2023-04-19T08:26:02.362Z,17.37
2023-04-19T08:28:30.342Z,17.15
2023-04-19T08:31:00.064Z,16.80
2023-04-19T08:33:29.231Z,16.88
2023-04-19T08:35:56.634Z,16.97
2023-04-19T08:38:24.073Z,17.14
2023-04-19T08:40:55.515Z,17.39
2023-04-19T08:43:28.844Z,17.41
2023-04-19T08:45:57.286Z,17.50
2023-04-19T08:48:25.620Z,18.01
2023-04-19T08:51:04.972Z,17.87
2023-04-19T08:53:36.056Z,18.07
2023-04-19T08:56:15.142Z,18.10
2023-04-19T08:59:03.902Z,18.25
2023-04-19T09:01:43.847Z,18.16
2023-04-19T09:04:34.458Z,17.95
2023-04-19T09:06:59.896Z,17.93
2023-04-19T09:12:00.649Z,17.59
2023-04-19T09:14:29.978Z,17.72
2023-04-19T09:17:17.673Z,17.82
2023-04-19T09:19:51.318Z,17.92
2023-04-19T09:22:19.844Z,18.14
2023-04-19T09:27:33.736Z,18.55
2023-04-19T09:30:03.795Z,18.79
2023-04-19T09:32:49.668Z,19.63
2023-04-19T09:35:17.517Z,19.79
2023-04-19T09:38:06.219Z,19.57
2023-04-19T09:40:34.540Z,19.54
2023-04-19T09:43:23.115Z,19.28
2023-04-19T09:45:51.668Z,18.92
2023-04-19T09:48:19.173Z,19.05
2023-04-19T09:51:04.568Z,19.42
2023-04-19T09:53:41.647Z,19.36
2023-04-19T09:56:12.953Z,19.32
2023-04-19T09:58:51.115Z,19.33
2023-04-19T10:01:23.059Z,19.34
2023-04-19T10:03:52.580Z,19.31
2023-04-19T10:08:56.173Z,19.10
2023-04-19T10:11:25.274Z,19.04
2023-04-19T10:14:00.766Z,18.99
2023-04-19T10:16:28.546Z,19.12
2023-04-19T10:18:57.059Z,19.18
2023-04-19T10:21:27.338Z,19.25
2023-04-19T10:23:59.142Z,19.45
2023-04-19T10:26:26.782Z,19.43
2023-04-19T10:28:57.976Z,19.43
2023-04-19T10:31:28.573Z,19.88
2023-04-19T10:33:57.801Z,20.02
2023-04-19T10:36:31.119Z,20.21
2023-04-19T10:38:58.728Z,19.95
2023-04-19T10:41:58.277Z,19.87
2023-04-19T10:44:26.629Z,19.69
2023-04-19T10:46:54.078Z,19.59
2023-04-19T10:49:24.422Z,19.59
2023-04-19T10:51:55.311Z,19.63
2023-04-19T10:54:35.818Z,20.21
2023-04-19T10:57:11.543Z,19.87
2023-04-19T10:59:44.326Z,19.82
2023-04-19T11:02:25.068Z,19.94
2023-04-19T11:04:52.905Z,19.76
2023-04-19T11:07:23.914Z,20.08
2023-04-19T11:09:52.622Z,20.08
2023-04-19T11:12:23.503Z,20.31
2023-04-19T11:15:00.524Z,20.01
2023-04-19T11:17:32.101Z,19.97
2023-04-19T11:20:01.761Z,20.20
2023-04-19T11:23:01.882Z,19.97
2023-04-19T11:25:31.660Z,20.08
2023-04-19T11:28:01.247Z,20.30
2023-04-19T11:30:32.881Z,20.38
2023-04-19T11:33:00.449Z,20.52
2023-04-19T11:35:32.716Z,20.63
2023-04-19T11:38:01.601Z,20.24
2023-04-19T11:40:29.312Z,19.58
2023-04-19T11:43:02.534Z,19.61
2023-04-19T11:45:39.848Z,19.66
2023-04-19T11:48:17.369Z,19.44
2023-04-19T11:50:49.522Z,19.05
2023-04-19T11:53:23.213Z,19.05
2023-04-19T11:55:52.467Z,19.10
2023-04-19T11:58:29.185Z,19.17
2023-04-19T12:01:04.058Z,19.21
2023-04-19T12:03:31.853Z,19.11
2023-04-19T12:06:09.093Z,19.28
2023-04-19T12:08:45.532Z,19.25
2023-04-19T12:11:13.290Z,19.24
2023-04-19T12:13:41.731Z,19.92
2023-04-19T12:16:12.908Z,20.30
2023-04-19T12:19:17.916Z,19.96
2023-04-19T12:21:47.641Z,19.75
2023-04-19T12:24:18.724Z,19.37
2023-04-19T12:26:57.196Z,19.51
2023-04-19T12:29:24.829Z,19.49
2023-04-19T12:31:52.274Z,18.99
2023-04-19T12:34:19.779Z,18.84
2023-04-19T12:36:50.225Z,19.33
2023-04-19T12:39:17.938Z,19.02
2023-04-19T12:41:48.508Z,18.76
2023-04-19T12:44:16.998Z,18.43
2023-04-19T12:46:45.061Z,18.62
2023-04-19T12:49:12.543Z,18.96
2023-04-19T12:51:40.181Z,18.58
2023-04-19T12:54:07.727Z,18.37
2023-04-19T12:56:36.355Z,18.40
2023-04-19T12:59:04.181Z,18.02
2023-04-19T13:01:33.207Z,17.73
2023-04-19T13:04:01.022Z,17.71
2023-04-19T13:06:28.882Z,17.61
2023-04-19T13:09:14.231Z,17.69
2023-04-19T13:12:13.157Z,17.73
2023-04-19T13:14:41.008Z,17.95
2023-04-19T13:17:18.304Z,18.09
2023-04-19T13:19:47.791Z,18.22
2023-04-19T13:22:15.910Z,18.59
2023-04-19T13:24:43.939Z,18.60
2023-04-19T13:27:12.501Z,18.42
2023-04-19T13:29:40.591Z,18.50
2023-04-19T13:32:12.306Z,18.48
2023-04-19T13:34:42.668Z,18.55
2023-04-19T13:37:10.768Z,18.58
2023-04-19T13:39:39.504Z,18.50
2023-04-19T13:42:07.317Z,18.48
2023-04-19T13:44:34.833Z,18.48
2023-04-19T13:47:04.537Z,18.61
2023-04-19T13:49:32.079Z,18.43
2023-04-19T13:51:59.633Z,18.52
2023-04-19T13:54:27.225Z,18.72
2023-04-19T13:56:54.787Z,19.15
2023-04-19T13:59:26.004Z,19.77
2023-04-19T14:01:56.028Z,20.20
2023-04-19T14:04:25.865Z,20.40
2023-04-19T14:06:54.029Z,20.57
2023-04-19T14:09:21.797Z,20.10
2023-04-19T14:11:49.461Z,19.87
2023-04-19T14:14:17.391Z,20.03
2023-04-19T14:16:45.396Z,20.29
2023-04-19T14:19:12.985Z,20.85
2023-04-19T14:21:40.425Z,20.85
2023-04-19T14:24:08.072Z,20.64
2023-04-19T14:26:35.583Z,20.51
2023-04-19T14:29:04.037Z,20.51
2023-04-19T14:31:32.804Z,20.72
2023-04-19T14:34:01.650Z,21.08
2023-04-19T14:36:30.537Z,21.20
2023-04-19T14:38:58.495Z,21.24
2023-04-19T14:41:26.032Z,21.54
2023-04-19T14:43:55.522Z,21.62
2023-04-19T14:46:24.863Z,21.86
2023-04-19T14:48:53.984Z,22.06
2023-04-19T14:51:22.526Z,21.95
2023-04-19T14:53:54.391Z,21.56
2023-04-19T14:56:24.116Z,21.42
2023-04-19T14:58:54.079Z,21.09
2023-04-19T15:01:23.304Z,20.69
2023-04-19T15:03:54.222Z,20.45
2023-04-19T15:06:22.010Z,20.12
2023-04-19T15:08:50.471Z,19.94
2023-04-19T15:11:18.437Z,20.00
2023-04-19T15:13:46.411Z,20.15
2023-04-19T15:16:15.177Z,20.81
2023-04-19T15:18:44.317Z,20.46
2023-04-19T15:21:13.371Z,19.48
2023-04-19T15:23:42.442Z,19.15
2023-04-19T15:26:10.602Z,19.03
2023-04-19T15:28:38.642Z,18.82
2023-04-19T15:31:07.965Z,18.64
2023-04-19T15:33:37.700Z,18.60
2023-04-19T15:36:06.009Z,18.55
2023-04-19T15:38:34.158Z,18.33
2023-04-19T15:41:01.882Z,18.15
2023-04-19T15:43:29.534Z,17.98
2023-04-19T15:45:57.014Z,17.87
2023-04-19T15:48:24.554Z,17.84
2023-04-19T15:50:52.071Z,17.95
2023-04-19T15:53:19.613Z,18.15
2023-04-19T15:55:48.064Z,18.36
2023-04-19T15:58:16.461Z,18.22
2023-04-19T16:00:47.132Z,18.29
2023-04-19T16:03:17.385Z,17.86
2023-04-19T16:05:45.124Z,18.17
2023-04-19T16:08:17.369Z,18.22
2023-04-19T16:10:46.177Z,18.00
2023-04-19T16:13:15.524Z,18.02
2023-04-19T16:15:45.047Z,17.61
2023-04-19T16:18:18.887Z,17.07
2023-04-19T16:20:47.320Z,16.78
2023-04-19T16:23:14.946Z,16.97
2023-04-19T16:25:42.593Z,17.42
2023-04-19T16:28:10.091Z,17.05
2023-04-19T16:30:37.776Z,16.83
2023-04-19T16:33:07.769Z,16.90
2023-04-19T16:35:37.444Z,16.75
2023-04-19T16:38:07.052Z,16.79
2023-04-19T16:40:36.529Z,16.66
2023-04-19T16:43:06.316Z,16.53
2023-04-19T16:45:55.127Z,16.62
2023-04-19T16:48:30.406Z,17.02
2023-04-19T16:51:03.087Z,16.78
2023-04-19T16:53:32.240Z,16.66
2023-04-19T16:56:03.444Z,16.79
2023-04-19T16:58:34.703Z,16.54
2023-04-19T17:01:02.733Z,17.08
2023-04-19T17:03:30.577Z,17.33
2023-04-19T17:05:59.408Z,17.67
2023-04-19T17:08:49.840Z,17.50
2023-04-19T17:11:18.868Z,16.75
2023-04-19T17:13:46.414Z,16.60
2023-04-19T17:16:15.419Z,16.14
2023-04-19T17:18:45.542Z,15.93
2023-04-19T17:21:16.327Z,15.78
2023-04-19T17:23:49.418Z,15.73
2023-04-19T17:26:19.740Z,15.67
2023-04-19T17:28:47.295Z,15.65
2023-04-19T17:31:14.923Z,15.58
2023-04-19T17:33:42.912Z,15.51
2023-04-19T17:36:31.559Z,15.52
2023-04-19T17:39:00.720Z,15.67
2023-04-19T17:41:28.285Z,15.74
2023-04-19T17:43:57.378Z,15.53
2023-04-19T17:46:24.821Z,15.24
2023-04-19T17:48:54.539Z,14.94
2023-04-19T17:51:22.530Z,14.99
2023-04-19T17:53:50.242Z,14.99
2023-04-19T17:56:21.401Z,15.14
2023-04-19T17:58:49.088Z,14.91
2023-04-19T18:01:16.663Z,14.65
2023-04-19T18:03:45.860Z,14.59
2023-04-19T18:06:21.577Z,14.47
2023-04-19T18:08:49.282Z,14.28
2023-04-19T18:11:18.336Z,14.26
2023-04-19T18:13:46.102Z,14.06
2023-04-19T18:16:14.157Z,14.26
2023-04-19T18:18:44.826Z,14.19
2023-04-19T18:21:15.940Z,14.24
2023-04-19T18:23:44.135Z,14.35
2023-04-19T18:26:11.811Z,14.37
2023-04-19T18:28:42.537Z,14.32
2023-04-19T18:31:15.839Z,14.40
2023-04-19T18:33:44.213Z,14.44
2023-04-19T18:36:14.265Z,14.54
2023-04-19T18:38:45.946Z,14.64
2023-04-19T18:41:14.801Z,14.70
2023-04-19T18:43:54.565Z,14.96
2023-04-19T18:46:34.293Z,15.24
2023-04-19T18:49:22.060Z,15.00
2023-04-19T18:51:52.482Z,14.81
2023-04-19T18:54:21.818Z,14.76
2023-04-19T18:57:21.168Z,14.66
2023-04-19T18:59:42.072Z,14.40
2023-04-19T19:02:11.702Z,14.33
2023-04-19T19:04:56.142Z,14.24
2023-04-19T19:10:10.709Z,14.25
2023-04-19T19:12:50.683Z,14.33
2023-04-19T19:15:26.584Z,14.33
2023-04-19T19:17:54.850Z,14.31
2023-04-19T19:20:23.430Z,14.30
2023-04-19T19:22:55.844Z,14.45
2023-04-19T19:25:24.371Z,14.57
2023-04-19T19:28:07.089Z,14.33
2023-04-19T19:30:40.271Z,14.25
2023-04-19T19:33:08.886Z,14.12
2023-04-19T19:35:42.346Z,14.12
2023-04-19T19:38:10.110Z,14.13
2023-04-19T19:41:04.154Z,14.08
2023-04-19T19:43:26.272Z,14.05
2023-04-19T19:45:55.510Z,14.11
2023-04-19T19:48:25.939Z,14.02
2023-04-19T19:51:25.010Z,13.96
2023-04-19T19:53:53.583Z,13.89
2023-04-19T19:56:28.147Z,13.98
2023-04-19T19:58:58.940Z,13.93
2023-04-19T20:01:29.710Z,14.02
2023-04-19T20:03:58.733Z,14.00
2023-04-19T20:09:24.492Z,13.92
2023-04-19T20:11:52.607Z,13.92
2023-04-19T20:14:26.286Z,13.90
2023-04-19T20:16:56.755Z,13.83
2023-04-19T20:19:24.658Z,13.84
2023-04-19T20:21:52.986Z,13.81
2023-04-19T20:24:22.044Z,13.71
2023-04-19T20:26:49.698Z,13.64
2023-04-19T20:29:19.377Z,13.69
2023-04-19T20:31:46.987Z,13.68
2023-04-19T20:34:14.514Z,13.67
2023-04-19T20:36:53.865Z,13.67
2023-04-19T20:39:23.538Z,13.65
2023-04-19T20:41:51.690Z,13.70
2023-04-19T20:44:22.923Z,13.73
2023-04-19T20:46:52.637Z,13.65
2023-04-19T20:49:22.637Z,13.61
2023-04-19T20:51:53.842Z,13.58
2023-04-19T20:54:23.096Z,13.55
2023-04-19T20:56:52.545Z,13.54
2023-04-19T20:59:20.458Z,13.44
2023-04-19T21:01:48.093Z,13.42
2023-04-19T21:04:15.794Z,13.40
2023-04-19T21:06:43.324Z,13.29
2023-04-19T21:09:11.207Z,13.34
2023-04-19T21:11:38.681Z,13.27
2023-04-19T21:14:06.185Z,13.33
2023-04-19T21:16:34.012Z,13.35
2023-04-19T21:19:01.736Z,13.39
2023-04-19T21:21:30.535Z,13.34
2023-04-19T21:24:01.667Z,13.24
2023-04-19T21:26:29.200Z,13.27
2023-04-19T21:28:56.644Z,13.31
2023-04-19T21:31:24.203Z,13.22
2023-04-19T21:33:51.726Z,13.06
2023-04-19T21:36:20.607Z,13.10
2023-04-19T21:38:48.613Z,13.09
2023-04-19T21:41:16.090Z,12.98
2023-04-19T21:43:43.563Z,12.94
2023-04-19T21:46:11.164Z,12.97
2023-04-19T21:48:42.181Z,12.91
2023-04-19T21:51:10.523Z,12.99
2023-04-19T21:53:39.364Z,12.95
2023-04-19T21:56:07.198Z,12.92
2023-04-19T21:58:34.657Z,13.08
2023-04-19T22:01:02.259Z,12.94
2023-04-19T22:03:29.994Z,12.79
2023-04-19T22:06:01.863Z,12.64
2023-04-19T22:08:32.634Z,12.63
2023-04-19T22:11:01.223Z,12.63
2023-04-19T22:13:30.228Z,12.55
2023-04-19T22:16:00.876Z,12.50
2023-04-19T22:18:28.459Z,12.54
2023-04-19T22:20:55.912Z,12.49
2023-04-19T22:23:23.419Z,12.36
2023-04-19T22:25:53.305Z,12.34
2023-04-19T22:28:20.850Z,12.34
2023-04-19T22:30:48.469Z,12.32
2023-04-19T22:33:16.167Z,12.34
2023-04-19T22:35:43.638Z,12.34
2023-04-19T22:38:11.160Z,12.23
2023-04-19T22:40:38.816Z,12.09
2023-04-19T22:43:06.375Z,12.10
2023-04-19T22:45:34.009Z,12.15
2023-04-19T22:48:01.569Z,12.13
2023-04-19T22:50:29.270Z,12.07
2023-04-19T22:52:56.750Z,12.06
2023-04-19T22:55:24.398Z,11.90
2023-04-19T22:57:51.871Z,11.82
2023-04-19T23:00:19.807Z,11.66
2023-04-19T23:02:47.489Z,11.75
2023-04-19T23:05:15.161Z,11.75
2023-04-19T23:07:45.798Z,11.66
2023-04-19T23:10:13.471Z,11.58
2023-04-19T23:12:40.980Z,11.63
2023-04-19T23:15:10.857Z,11.50
2023-04-19T23:17:39.471Z,11.61
2023-04-19T23:20:11.298Z,11.76
2023-04-19T23:22:39.804Z,11.79
2023-04-19T23:25:08.111Z,11.83
2023-04-19T23:27:36.294Z,11.80
2023-04-19T23:30:06.998Z,11.72
2023-04-19T23:32:34.763Z,11.64
2023-04-19T23:35:02.318Z,11.62
2023-04-19T23:37:29.902Z,11.60
2023-04-19T23:39:57.458Z,11.58
2023-04-19T23:42:25.033Z,11.65
2023-04-19T23:44:54.521Z,11.65
2023-04-19T23:47:22.215Z,11.60
2023-04-19T23:49:50.074Z,11.60
2023-04-19T23:52:18.238Z,11.56
2023-04-19T23:54:45.697Z,11.52
2023-04-19T23:57:13.136Z,11.57
2023-04-19T23:59:40.656Z,11.48
